Data Viewer
| City | State | Eastern Time | Source | Temp | DewPt | RH | BP | 5 Min Precip | Wind Speed | Wind Dir | 5 Min Wind Max | 5 Min Wind Max Dir |
|---|---|---|---|---|---|---|---|---|---|---|---|---|
| Nantucket | MA | 2026-05-01 23:25 | ASOS | 45 | 43 | 93 | 29.92 | 7 | SW | |||
| Nantucket | MA | 2026-05-02 15:30 | ASOS | 50 | 45 | 82 | 29.88 | 10 | SSE | |||
| Nantucket | MA | 2026-05-02 15:55 | ASOS | 50 | 45 | 82 | 29.89 | 10 | SSE | |||
| Nantucket | MA | 2026-05-02 15:53 | ASOS | 50 | 44 | 80 | 29.89 | 9 | SSE | |||
| Nantucket | MA | 2026-05-02 15:50 | ASOS | 50 | 45 | 82 | 29.89 | 12 | SSE | |||
| Nantucket | MA | 2026-05-02 15:45 | ASOS | 50 | 45 | 82 | 29.89 | 8 | SSE | |||
| Nantucket | MA | 2026-05-02 15:40 | ASOS | 50 | 45 | 82 | 29.89 | 9 | SSE | |||
| Nantucket | MA | 2026-05-02 15:35 | ASOS | 50 | 45 | 82 | 29.89 | 9 | SSE | |||
| Nantucket | MA | 2026-05-02 15:25 | ASOS | 50 | 45 | 82 | 29.88 | 12 | SSE | |||
| Nantucket | MA | 2026-05-02 16:05 | ASOS | 50 | 45 | 82 | 29.89 | 9 | SSE | |||
| Nantucket | MA | 2026-05-02 15:20 | ASOS | 50 | 45 | 82 | 29.88 | 13 | SSE | |||
| Nantucket | MA | 2026-05-02 15:15 | ASOS | 50 | 45 | 82 | 29.89 | 10 | SSE | |||
| Nantucket | MA | 2026-05-02 15:10 | ASOS | 50 | 45 | 82 | 29.89 | 12 | SSE | |||
| Nantucket | MA | 2026-05-02 15:05 | ASOS | 50 | 45 | 82 | 29.89 | 10 | SSE | |||
| Nantucket | MA | 2026-05-02 15:00 | ASOS | 50 | 45 | 82 | 29.90 | 12 | S | |||
| Nantucket | MA | 2026-05-02 14:55 | ASOS | 50 | 43 | 76 | 29.90 | 10 | S | |||
| Nantucket | MA | 2026-05-02 16:00 | ASOS | 50 | 45 | 82 | 29.89 | 9 | S | |||
| Nantucket | MA | 2026-05-02 16:15 | ASOS | 48 | 45 | 87 | 29.88 | 8 | SSE | |||
| Nantucket | MA | 2026-05-02 14:50 | ASOS | 50 | 43 | 76 | 29.90 | 13 | S | |||
| Nantucket | MA | 2026-05-02 16:55 | ASOS | 48 | 45 | 87 | 29.87 | 9 | SE | |||
| Nantucket | MA | 2026-05-02 17:25 | ASOS | 48 | 45 | 87 | 29.87 | 10 | SSE | |||
| Nantucket | MA | 2026-05-02 17:20 | ASOS | 48 | 45 | 87 | 29.87 | 9 | SSE | |||
| Nantucket | MA | 2026-05-02 17:15 | ASOS | 48 | 45 | 87 | 29.87 | 9 | SSE | |||
| Nantucket | MA | 2026-05-02 17:10 | ASOS | 48 | 45 | 87 | 29.86 | 10 | SSE | |||
| Nantucket | MA | 2026-05-02 17:05 | ASOS | 48 | 45 | 87 | 29.87 | 10 | SSE | |||
| Nantucket | MA | 2026-05-02 17:00 | ASOS | 48 | 45 | 87 | 29.87 | 10 | SE | |||
| Nantucket | MA | 2026-05-02 16:53 | ASOS | 49 | 45 | 86 | 29.87 | 8 | SSE | |||
| Nantucket | MA | 2026-05-02 16:20 | ASOS | 48 | 45 | 87 | 29.88 | 10 | SSE | |||
| Nantucket | MA | 2026-05-02 16:50 | ASOS | 48 | 45 | 87 | 29.87 | 9 | SSE | |||
| Nantucket | MA | 2026-05-02 16:45 | ASOS | 48 | 45 | 87 | 29.87 | 8 | SSE | |||
| Nantucket | MA | 2026-05-02 16:40 | ASOS | 48 | 45 | 87 | 29.87 | 9 | SSE | |||
| Nantucket | MA | 2026-05-02 16:35 | ASOS | 48 | 45 | 87 | 29.87 | 9 | SSE | |||
| Nantucket | MA | 2026-05-02 16:30 | ASOS | 48 | 45 | 87 | 29.88 | 9 | SSE | |||
| Nantucket | MA | 2026-05-02 16:25 | ASOS | 48 | 45 | 87 | 29.87 | 9 | SSE | |||
| Nantucket | MA | 2026-05-02 14:53 | ASOS | 50 | 43 | 77 | 29.90 | 12 | S | |||
| Nantucket | MA | 2026-05-02 14:45 | ASOS | 50 | 43 | 76 | 29.90 | 12 | S | |||
| Nantucket | MA | 2026-05-02 17:40 | ASOS | 48 | 45 | 87 | 29.86 | 10 | SSE | |||
| Nantucket | MA | 2026-05-02 12:25 | ASOS | 52 | 45 | 76 | 29.92 | 13 | S | |||
| Nantucket | MA | 2026-05-02 12:53 | ASOS | 51 | 44 | 77 | 29.91 | 12 | S | |||
| Nantucket | MA | 2026-05-02 12:50 | ASOS | 52 | 45 | 76 | 29.92 | 10 | S | |||
| Nantucket | MA | 2026-05-02 12:45 | ASOS | 52 | 45 | 76 | 29.91 | 12 | S | |||
| Nantucket | MA | 2026-05-02 12:40 | ASOS | 52 | 45 | 76 | 29.91 | 12 | S | |||
| Nantucket | MA | 2026-05-02 12:35 | ASOS | 52 | 45 | 76 | 29.92 | 12 | S | |||
| Nantucket | MA | 2026-05-02 12:30 | ASOS | 52 | 45 | 76 | 29.91 | 10 | S | |||
| Nantucket | MA | 2026-05-02 12:20 | ASOS | 50 | 45 | 82 | 29.92 | 12 | S | |||
| Nantucket | MA | 2026-05-02 13:05 | ASOS | 50 | 45 | 82 | 29.91 | 12 | S | |||
| Nantucket | MA | 2026-05-02 12:15 | ASOS | 52 | 45 | 76 | 29.92 | 13 | S | |||
| Nantucket | MA | 2026-05-02 12:10 | ASOS | 52 | 45 | 76 | 29.92 | 12 | S | |||
| Nantucket | MA | 2026-05-02 12:05 | ASOS | 52 | 45 | 76 | 29.92 | 12 | S | |||
| Nantucket | MA | 2026-05-02 12:00 | ASOS | 52 | 45 | 76 | 29.92 | 13 | S | |||
| Nantucket | MA | 2026-05-02 11:55 | ASOS | 52 | 45 | 76 | 29.92 | 14 | S | |||
| Nantucket | MA | 2026-05-02 11:53 | ASOS | 52 | 45 | 77 | 29.92 | 14 | S | |||
| Nantucket | MA | 2026-05-02 12:55 | ASOS | 50 | 45 | 82 | 29.91 | 10 | S | |||
| Nantucket | MA | 2026-05-02 13:15 | ASOS | 50 | 45 | 82 | 29.91 | 12 | S | |||
| Nantucket | MA | 2026-05-02 14:40 | ASOS | 50 | 43 | 76 | 29.90 | 13 | S | |||
| Nantucket | MA | 2026-05-02 14:05 | ASOS | 52 | 43 | 71 | 29.92 | 14 | S | |||
| Nantucket | MA | 2026-05-02 14:35 | ASOS | 52 | 43 | 71 | 29.91 | 13 | S | |||
| Nantucket | MA | 2026-05-02 14:30 | ASOS | 50 | 43 | 76 | 29.91 | 14 | S | |||
| Nantucket | MA | 2026-05-02 14:25 | ASOS | 50 | 43 | 76 | 29.91 | 13 | S | |||
| Nantucket | MA | 2026-05-02 14:20 | ASOS | 52 | 43 | 71 | 29.91 | 14 | S | |||
| Nantucket | MA | 2026-05-02 14:15 | ASOS | 52 | 43 | 71 | 29.92 | 15 | S | |||
| Nantucket | MA | 2026-05-02 14:10 | ASOS | 52 | 43 | 71 | 29.92 | 14 | S | |||
| Nantucket | MA | 2026-05-02 14:00 | ASOS | 50 | 43 | 76 | 29.92 | 14 | S | |||
| Nantucket | MA | 2026-05-02 13:20 | ASOS | 52 | 45 | 76 | 29.91 | 10 | S | |||
| Nantucket | MA | 2026-05-02 13:55 | ASOS | 50 | 43 | 76 | 29.92 | 13 | S | |||
| Nantucket | MA | 2026-05-02 13:53 | ASOS | 50 | 42 | 74 | 29.92 | 13 | S | |||
| Nantucket | MA | 2026-05-02 13:50 | ASOS | 52 | 43 | 71 | 29.92 | 14 | S | |||
| Nantucket | MA | 2026-05-02 13:35 | ASOS | 52 | 45 | 76 | 29.91 | 13 | S | |||
| Nantucket | MA | 2026-05-02 13:30 | ASOS | 52 | 45 | 76 | 29.91 | 12 | S | |||
| Nantucket | MA | 2026-05-02 13:25 | ASOS | 52 | 45 | 76 | 29.91 | 13 | S | |||
| Nantucket | MA | 2026-05-02 17:35 | ASOS | 48 | 45 | 87 | 29.86 | 12 | SSE | |||
| Nantucket | MA | 2026-05-02 17:45 | ASOS | 48 | 46 | 93 | 29.86 | 10 | SSE | |||
| Nantucket | MA | 2026-05-02 11:40 | ASOS | 52 | 45 | 76 | 29.93 | 14 | S | |||
| Nantucket | MA | 2026-05-02 21:10 | ASOS | 48 | 46 | 93 | 29.86 | 9 | S | |||
| Nantucket | MA | 2026-05-02 21:53 | ASOS | 48 | 47 | 96 | 29.86 | 8 | S | |||
| Nantucket | MA | 2026-05-02 21:50 | ASOS | 48 | 46 | 93 | 29.86 | 8 | S | |||
| Nantucket | MA | 2026-05-02 21:45 | ASOS | 48 | 46 | 93 | 29.86 | 8 | S | |||
| Nantucket | MA | 2026-05-02 21:25 | ASOS | 48 | 46 | 93 | 29.86 | 9 | S | |||
| Nantucket | MA | 2026-05-02 21:20 | ASOS | 48 | 46 | 93 | 29.86 | 8 | S | |||
| Nantucket | MA | 2026-05-02 21:15 | ASOS | 48 | 46 | 93 | 29.86 | 9 | S | |||
| Nantucket | MA | 2026-05-02 21:05 | ASOS | 48 | 46 | 93 | 29.86 | 8 | S | |||
| Nantucket | MA | 2026-05-02 22:00 | ASOS | 48 | 46 | 93 | 29.85 | 8 | S | |||
| Nantucket | MA | 2026-05-02 21:00 | ASOS | 48 | 46 | 93 | 29.86 | 8 | S | |||
| Nantucket | MA | 2026-05-02 20:55 | ASOS | 48 | 46 | 93 | 29.86 | 8 | S | |||
| Nantucket | MA | 2026-05-02 20:53 | ASOS | 48 | 47 | 96 | 29.86 | 8 | S | |||
| Nantucket | MA | 2026-05-02 20:50 | ASOS | 48 | 46 | 93 | 29.86 | 8 | S | |||
| Nantucket | MA | 2026-05-02 20:45 | ASOS | 48 | 46 | 93 | 29.86 | 9 | S | |||
| Nantucket | MA | 2026-05-02 20:40 | ASOS | 48 | 46 | 93 | 29.86 | 9 | S | |||
| Nantucket | MA | 2026-05-02 21:55 | ASOS | 48 | 46 | 93 | 29.85 | 8 | S | |||
| Nantucket | MA | 2026-05-02 22:05 | ASOS | 48 | 46 | 93 | 29.85 | 7 | S | |||
| Nantucket | MA | 2026-05-02 20:30 | ASOS | 48 | 46 | 93 | 29.86 | 8 | S | |||
| Nantucket | MA | 2026-05-02 22:45 | ASOS | 48 | 46 | 93 | 29.83 | 7 | SSE | |||
| Nantucket | MA | 2026-05-02 23:06 | ASOS | 48 | 47 | 96 | 29.83 | 7 | S | |||
| Nantucket | MA | 2026-05-02 23:05 | ASOS | 48 | 46 | 93 | 29.83 | 7 | SSE | |||
| Nantucket | MA | 2026-05-02 23:00 | ASOS | 48 | 46 | 93 | 29.83 | 6 | SSE | |||
| Nantucket | MA | 2026-05-02 22:55 | ASOS | 48 | 46 | 93 | 29.83 | 6 | SSE | |||
| Nantucket | MA | 2026-05-02 22:53 | ASOS | 48 | 47 | 96 | 29.83 | 6 | SSE | |||
| Nantucket | MA | 2026-05-02 22:50 | ASOS | 48 | 46 | 93 | 29.83 | 7 | S | |||
| Nantucket | MA | 2026-05-02 22:43 | ASOS | 48 | 47 | 96 | 29.83 | 7 | SSE | |||
| Nantucket | MA | 2026-05-02 22:10 | ASOS | 48 | 46 | 93 | 29.85 | 7 | S | |||
| Nantucket | MA | 2026-05-02 22:40 | ASOS | 48 | 46 | 93 | 29.83 | 7 | SSE | |||
| Nantucket | MA | 2026-05-02 22:35 | ASOS | 48 | 46 | 93 | 29.83 | 7 | SSE | |||
| Nantucket | MA | 2026-05-02 22:30 | ASOS | 48 | 46 | 93 | 29.83 | 7 | S | |||
| Nantucket | MA | 2026-05-02 22:25 | ASOS | 48 | 46 | 93 | 29.84 | 6 | S | |||
| Nantucket | MA | 2026-05-02 22:20 | ASOS | 48 | 46 | 93 | 29.84 | 7 | S | |||
| Nantucket | MA | 2026-05-02 22:15 | ASOS | 48 | 46 | 93 | 29.85 | 7 | S | |||
| Nantucket | MA | 2026-05-02 20:35 | ASOS | 48 | 46 | 93 | 29.86 | 8 | S | |||
| Nantucket | MA | 2026-05-02 20:25 | ASOS | 48 | 46 | 93 | 29.86 | 9 | S | |||
| Nantucket | MA | 2026-05-02 17:50 | ASOS | 48 | 46 | 93 | 29.86 | 9 | SSE | |||
| Nantucket | MA | 2026-05-02 18:25 | ASOS | 48 | 46 | 93 | 29.86 | 5 | SSE | |||
| Nantucket | MA | 2026-05-02 18:50 | ASOS | 48 | 46 | 93 | 29.86 | 5 | S | |||
| Nantucket | MA | 2026-05-02 18:45 | ASOS | 48 | 46 | 93 | 29.86 | 6 | S | |||
| Nantucket | MA | 2026-05-02 18:43 | ASOS | 48 | 46 | 93 | 29.86 | 7 | S | |||
| Nantucket | MA | 2026-05-02 18:40 | ASOS | 48 | 46 | 93 | 29.86 | 6 | S | |||
| Nantucket | MA | 2026-05-02 18:35 | ASOS | 48 | 46 | 93 | 29.86 | 3 | S | |||
| Nantucket | MA | 2026-05-02 18:30 | ASOS | 48 | 46 | 93 | 29.86 | 5 | S | |||
| Nantucket | MA | 2026-05-02 18:20 | ASOS | 48 | 46 | 93 | 29.86 | 5 | S | |||
| Nantucket | MA | 2026-05-02 18:55 | ASOS | 48 | 46 | 93 | 29.86 | 5 | S | |||
| Nantucket | MA | 2026-05-02 18:15 | ASOS | 48 | 46 | 93 | 29.86 | 5 | SSE | |||
| Nantucket | MA | 2026-05-02 18:10 | ASOS | 48 | 46 | 93 | 29.86 | 5 | SSE | |||
| Nantucket | MA | 2026-05-02 18:05 | ASOS | 48 | 46 | 93 | 29.86 | 6 | SSE | |||
| Nantucket | MA | 2026-05-02 18:00 | ASOS | 48 | 46 | 93 | 29.86 | 8 | SE | |||
| Nantucket | MA | 2026-05-02 17:55 | ASOS | 48 | 46 | 93 | 29.86 | 9 | SE | |||
| Nantucket | MA | 2026-05-02 17:53 | ASOS | 48 | 46 | 93 | 29.86 | 9 | SSE | |||
| Nantucket | MA | 2026-05-02 18:53 | ASOS | 48 | 46 | 93 | 29.86 | 5 | S | |||
| Nantucket | MA | 2026-05-02 19:05 | ASOS | 48 | 46 | 93 | 29.86 | 7 | S | |||
| Nantucket | MA | 2026-05-02 20:20 | ASOS | 48 | 46 | 93 | 29.86 | 9 | S | |||
| Nantucket | MA | 2026-05-02 19:50 | ASOS | 48 | 46 | 93 | 29.86 | 10 | S | |||
| Nantucket | MA | 2026-05-02 20:15 | ASOS | 48 | 46 | 93 | 29.86 | 9 | S | |||
| Nantucket | MA | 2026-05-02 20:10 | ASOS | 48 | 46 | 93 | 29.86 | 9 | S | |||
| Nantucket | MA | 2026-05-02 20:05 | ASOS | 48 | 46 | 93 | 29.86 | 9 | S | |||
| Nantucket | MA | 2026-05-02 20:00 | ASOS | 48 | 46 | 93 | 29.86 | 9 | S | |||
| Nantucket | MA | 2026-05-02 19:55 | ASOS | 48 | 46 | 93 | 29.86 | 9 | S | |||
| Nantucket | MA | 2026-05-02 19:53 | ASOS | 48 | 46 | 93 | 29.86 | 9 | S | |||
| Nantucket | MA | 2026-05-02 19:45 | ASOS | 48 | 46 | 93 | 29.86 | 10 | S | |||
| Nantucket | MA | 2026-05-02 19:10 | ASOS | 48 | 46 | 93 | 29.86 | 8 | S | |||
| Nantucket | MA | 2026-05-02 19:40 | ASOS | 48 | 46 | 93 | 29.86 | 9 | S | |||
| Nantucket | MA | 2026-05-02 19:35 | ASOS | 48 | 46 | 93 | 29.86 | 8 | S | |||
| Nantucket | MA | 2026-05-02 19:30 | ASOS | 48 | 46 | 93 | 29.86 | 8 | S | |||
| Nantucket | MA | 2026-05-02 19:25 | ASOS | 48 | 46 | 93 | 29.86 | 8 | S | |||
| Nantucket | MA | 2026-05-02 19:20 | ASOS | 48 | 46 | 93 | 29.86 | 8 | S | |||
| Nantucket | MA | 2026-05-02 19:15 | ASOS | 48 | 46 | 93 | 29.86 | 7 | S | |||
| Nantucket | MA | 2026-05-02 11:50 | ASOS | 52 | 45 | 76 | 29.93 | 14 | S | |||
| Nantucket | MA | 2026-05-02 11:35 | ASOS | 52 | 45 | 76 | 29.93 | 13 | S | |||
| Nantucket | MA | 2026-05-01 23:30 | ASOS | 45 | 43 | 93 | 29.92 | 8 | SW | |||
| Nantucket | MA | 2026-05-02 03:10 | ASOS | 43 | 43 | 100 | 29.93 | 8 | S | |||
| Nantucket | MA | 2026-05-02 03:40 | ASOS | 45 | 45 | 100 | 29.93 | 7 | S | |||
| Nantucket | MA | 2026-05-02 03:35 | ASOS | 45 | 43 | 93 | 29.93 | 8 | S | |||
| Nantucket | MA | 2026-05-02 03:30 | ASOS | 45 | 43 | 93 | 29.93 | 8 | S | |||
| Nantucket | MA | 2026-05-02 03:25 | ASOS | 45 | 43 | 93 | 29.93 | 7 | S | |||
| Nantucket | MA | 2026-05-02 03:20 | ASOS | 45 | 43 | 93 | 29.93 | 7 | S | |||
| Nantucket | MA | 2026-05-02 03:15 | ASOS | 43 | 43 | 100 | 29.93 | 8 | S | |||
| Nantucket | MA | 2026-05-02 03:05 | ASOS | 43 | 43 | 100 | 29.93 | 8 | S | |||
| Nantucket | MA | 2026-05-02 03:53 | ASOS | 44 | 43 | 96 | 29.92 | 8 | S | |||
| Nantucket | MA | 2026-05-02 03:00 | ASOS | 43 | 43 | 100 | 29.93 | 8 | SSE | |||
| Nantucket | MA | 2026-05-02 02:55 | ASOS | 43 | 43 | 100 | 29.92 | 6 | SSE | |||
| Nantucket | MA | 2026-05-02 02:53 | ASOS | 44 | 44 | 100 | 29.92 | 6 | S | |||
| Nantucket | MA | 2026-05-02 02:50 | ASOS | 45 | 45 | 100 | 29.92 | 6 | S | |||
| Nantucket | MA | 2026-05-02 02:40 | ASOS | 43 | 43 | 100 | 29.92 | 5 | SE | |||
| Nantucket | MA | 2026-05-02 02:35 | ASOS | 43 | 43 | 100 | 29.92 | 5 | SE | |||
| Nantucket | MA | 2026-05-02 03:50 | ASOS | 45 | 43 | 93 | 29.92 | 8 | S | |||
| Nantucket | MA | 2026-05-02 04:00 | ASOS | 45 | 43 | 93 | 29.92 | 8 | S | |||
| Nantucket | MA | 2026-05-02 02:25 | ASOS | 45 | 43 | 93 | 29.92 | 0 | N | |||
| Nantucket | MA | 2026-05-02 04:45 | ASOS | 45 | 43 | 93 | 29.92 | 6 | S | |||
| Nantucket | MA | 2026-05-02 05:20 | ASOS | 43 | 43 | 100 | 29.92 | 7 | S | |||
| Nantucket | MA | 2026-05-02 05:10 | ASOS | 43 | 43 | 100 | 29.92 | 7 | S | |||
| Nantucket | MA | 2026-05-02 05:05 | ASOS | 43 | 43 | 100 | 29.92 | 8 | S | |||
| Nantucket | MA | 2026-05-02 04:55 | ASOS | 45 | 43 | 93 | 29.92 | 6 | S | |||
| Nantucket | MA | 2026-05-02 04:53 | ASOS | 44 | 43 | 96 | 29.92 | 5 | S | |||
| Nantucket | MA | 2026-05-02 04:50 | ASOS | 45 | 43 | 93 | 29.92 | 6 | S | |||
| Nantucket | MA | 2026-05-02 04:40 | ASOS | 45 | 43 | 93 | 29.92 | 8 | SSW | |||
| Nantucket | MA | 2026-05-02 04:05 | ASOS | 45 | 43 | 93 | 29.92 | 9 | S | |||
| Nantucket | MA | 2026-05-02 04:35 | ASOS | 45 | 43 | 93 | 29.92 | 9 | S | |||
| Nantucket | MA | 2026-05-02 04:30 | ASOS | 45 | 43 | 93 | 29.92 | 8 | S | |||
| Nantucket | MA | 2026-05-02 04:25 | ASOS | 45 | 43 | 93 | 29.91 | 8 | S | |||
| Nantucket | MA | 2026-05-02 04:20 | ASOS | 45 | 43 | 93 | 29.92 | 9 | S | |||
| Nantucket | MA | 2026-05-02 04:15 | ASOS | 45 | 43 | 93 | 29.92 | 9 | S | |||
| Nantucket | MA | 2026-05-02 04:10 | ASOS | 45 | 43 | 93 | 29.92 | 8 | S | |||
| Nantucket | MA | 2026-05-02 02:30 | ASOS | 45 | 43 | 93 | 29.92 | 3 | SSE | |||
| Nantucket | MA | 2026-05-02 02:20 | ASOS | 45 | 43 | 93 | 29.92 | 0 | N | |||
| Nantucket | MA | 2026-05-02 05:30 | ASOS | 43 | 43 | 100 | 29.93 | 8 | S | |||
| Nantucket | MA | 2026-05-02 00:10 | ASOS | 46 | 43 | 87 | 29.92 | 8 | WSW | |||
| Nantucket | MA | 2026-05-02 00:45 | ASOS | 45 | 43 | 93 | 29.92 | 8 | SW | |||
| Nantucket | MA | 2026-05-02 00:40 | ASOS | 45 | 43 | 93 | 29.92 | 8 | SW | |||
| Nantucket | MA | 2026-05-02 00:30 | ASOS | 45 | 43 | 93 | 29.92 | 8 | SW | |||
| Nantucket | MA | 2026-05-02 00:25 | ASOS | 46 | 43 | 87 | 29.92 | 7 | SW | |||
| Nantucket | MA | 2026-05-02 00:20 | ASOS | 46 | 43 | 87 | 29.92 | 9 | SW | |||
| Nantucket | MA | 2026-05-02 00:15 | ASOS | 45 | 43 | 93 | 29.92 | 9 | WSW | |||
| Nantucket | MA | 2026-05-02 00:00 | ASOS | 46 | 43 | 87 | 29.93 | 9 | SW | |||
| Nantucket | MA | 2026-05-02 00:53 | ASOS | 45 | 43 | 93 | 29.92 | 7 | SW | |||
| Nantucket | MA | 2026-05-01 23:55 | ASOS | 46 | 43 | 87 | 29.93 | 8 | SW | |||
| Nantucket | MA | 2026-05-01 23:53 | ASOS | 46 | 43 | 89 | 29.92 | 8 | SW | |||
| Nantucket | MA | 2026-05-01 23:50 | ASOS | 46 | 43 | 87 | 29.92 | 8 | SW | |||
| Nantucket | MA | 2026-05-01 23:45 | ASOS | 46 | 43 | 87 | 29.93 | 10 | SW | |||
| Nantucket | MA | 2026-05-01 23:40 | ASOS | 46 | 43 | 87 | 29.92 | 9 | SW | |||
| Nantucket | MA | 2026-05-01 23:35 | ASOS | 45 | 43 | 93 | 29.92 | 9 | SW | |||
| Nantucket | MA | 2026-05-02 00:50 | ASOS | 45 | 43 | 93 | 29.92 | 7 | SW | |||
| Nantucket | MA | 2026-05-02 00:55 | ASOS | 45 | 43 | 93 | 29.92 | 7 | SW | |||
| Nantucket | MA | 2026-05-02 02:15 | ASOS | 45 | 43 | 93 | 29.92 | 5 | SSW | |||
| Nantucket | MA | 2026-05-02 01:45 | ASOS | 45 | 43 | 93 | 29.92 | 7 | S | |||
| Nantucket | MA | 2026-05-02 02:10 | ASOS | 45 | 43 | 93 | 29.92 | 6 | SSW | |||
| Nantucket | MA | 2026-05-02 02:05 | ASOS | 45 | 43 | 93 | 29.92 | 6 | SSW | |||
| Nantucket | MA | 2026-05-02 02:00 | ASOS | 45 | 43 | 93 | 29.92 | 8 | SW | |||
| Nantucket | MA | 2026-05-02 01:55 | ASOS | 45 | 43 | 93 | 29.92 | 8 | SW | |||
| Nantucket | MA | 2026-05-02 01:53 | ASOS | 45 | 43 | 93 | 29.93 | 8 | SSW | |||
| Nantucket | MA | 2026-05-02 01:50 | ASOS | 45 | 43 | 93 | 29.93 | 7 | SSW | |||
| Nantucket | MA | 2026-05-02 01:35 | ASOS | 45 | 43 | 93 | 29.92 | 8 | SW | |||
| Nantucket | MA | 2026-05-02 01:00 | ASOS | 45 | 43 | 93 | 29.92 | 8 | SW | |||
| Nantucket | MA | 2026-05-02 01:30 | ASOS | 46 | 43 | 87 | 29.92 | 8 | SW | |||
| Nantucket | MA | 2026-05-02 01:25 | ASOS | 46 | 43 | 87 | 29.93 | 8 | SW | |||
| Nantucket | MA | 2026-05-02 01:20 | ASOS | 46 | 43 | 87 | 29.93 | 8 | SW | |||
| Nantucket | MA | 2026-05-02 01:15 | ASOS | 46 | 43 | 87 | 29.93 | 9 | SW | |||
| Nantucket | MA | 2026-05-02 01:10 | ASOS | 45 | 43 | 93 | 29.93 | 8 | SW | |||
| Nantucket | MA | 2026-05-02 01:05 | ASOS | 45 | 43 | 93 | 29.93 | 7 | SW | |||
| Nantucket | MA | 2026-05-02 05:25 | ASOS | 45 | 43 | 93 | 29.92 | 8 | S | |||
| Nantucket | MA | 2026-05-02 05:35 | ASOS | 43 | 43 | 100 | 29.93 | 8 | S | |||
| Nantucket | MA | 2026-05-02 11:30 | ASOS | 52 | 46 | 82 | 29.93 | 12 | S | |||
| Nantucket | MA | 2026-05-02 09:20 | ASOS | 52 | 46 | 82 | 29.95 | 13 | S | |||
| Nantucket | MA | 2026-05-02 09:50 | ASOS | 54 | 45 | 71 | 29.95 | 13 | SSW | |||
| Nantucket | MA | 2026-05-02 09:45 | ASOS | 52 | 45 | 76 | 29.95 | 13 | SSW | |||
| Nantucket | MA | 2026-05-02 09:40 | ASOS | 52 | 46 | 82 | 29.95 | 14 | SSW | |||
| Nantucket | MA | 2026-05-02 09:35 | ASOS | 52 | 45 | 76 | 29.95 | 13 | S | |||
| Nantucket | MA | 2026-05-02 09:30 | ASOS | 52 | 45 | 76 | 29.95 | 14 | S | |||
| Nantucket | MA | 2026-05-02 09:25 | ASOS | 52 | 46 | 82 | 29.95 | 13 | S | |||
| Nantucket | MA | 2026-05-02 09:15 | ASOS | 52 | 45 | 76 | 29.95 | 13 | S | |||
| Nantucket | MA | 2026-05-02 09:55 | ASOS | 54 | 46 | 77 | 29.95 | 12 | S | |||
| Nantucket | MA | 2026-05-02 09:10 | ASOS | 52 | 45 | 76 | 29.95 | 10 | S | |||
| Nantucket | MA | 2026-05-02 09:05 | ASOS | 52 | 46 | 82 | 29.95 | 12 | S | |||
| Nantucket | MA | 2026-05-02 09:00 | ASOS | 50 | 45 | 82 | 29.95 | 12 | S | |||
| Nantucket | MA | 2026-05-02 08:53 | ASOS | 50 | 45 | 83 | 29.95 | 12 | S | |||
| Nantucket | MA | 2026-05-02 08:50 | ASOS | 52 | 45 | 76 | 29.95 | 12 | S | |||
| Nantucket | MA | 2026-05-02 08:45 | ASOS | 52 | 45 | 76 | 29.95 | 10 | S | |||
| Nantucket | MA | 2026-05-02 09:53 | ASOS | 53 | 45 | 74 | 29.95 | 13 | SSW | |||
| Nantucket | MA | 2026-05-02 10:00 | ASOS | 54 | 46 | 77 | 29.95 | 14 | S | |||
| Nantucket | MA | 2026-05-02 08:35 | ASOS | 50 | 46 | 87 | 29.95 | 12 | S | |||
| Nantucket | MA | 2026-05-02 10:45 | ASOS | 52 | 45 | 76 | 29.95 | 13 | S | |||
| Nantucket | MA | 2026-05-02 11:25 | ASOS | 52 | 45 | 76 | 29.93 | 13 | S | |||
| Nantucket | MA | 2026-05-02 11:15 | ASOS | 52 | 45 | 76 | 29.94 | 12 | S | |||
| Nantucket | MA | 2026-05-02 11:05 | ASOS | 52 | 45 | 76 | 29.95 | 13 | S | |||
| Nantucket | MA | 2026-05-02 11:00 | ASOS | 52 | 45 | 76 | 29.95 | 13 | S | |||
| Nantucket | MA | 2026-05-02 10:53 | ASOS | 52 | 45 | 77 | 29.95 | 12 | SSW | |||
| Nantucket | MA | 2026-05-02 10:50 | ASOS | 52 | 45 | 76 | 29.95 | 13 | SSW | |||
| Nantucket | MA | 2026-05-02 10:40 | ASOS | 52 | 45 | 76 | 29.95 | 12 | S | |||
| Nantucket | MA | 2026-05-02 10:05 | ASOS | 52 | 45 | 76 | 29.95 | 13 | S | |||
| Nantucket | MA | 2026-05-02 10:35 | ASOS | 52 | 45 | 76 | 29.94 | 13 | S | |||
| Nantucket | MA | 2026-05-02 10:30 | ASOS | 52 | 45 | 76 | 29.94 | 13 | S | |||
| Nantucket | MA | 2026-05-02 10:25 | ASOS | 52 | 45 | 76 | 29.94 | 13 | S | |||
| Nantucket | MA | 2026-05-02 10:20 | ASOS | 54 | 46 | 77 | 29.95 | 14 | S | |||
| Nantucket | MA | 2026-05-02 10:15 | ASOS | 52 | 45 | 76 | 29.95 | 12 | S | |||
| Nantucket | MA | 2026-05-02 10:10 | ASOS | 52 | 45 | 76 | 29.95 | 14 | S | |||
| Nantucket | MA | 2026-05-02 08:40 | ASOS | 50 | 45 | 82 | 29.94 | 13 | S | |||
| Nantucket | MA | 2026-05-02 08:30 | ASOS | 50 | 45 | 82 | 29.95 | 10 | S | |||
| Nantucket | MA | 2026-05-02 05:40 | ASOS | 45 | 43 | 93 | 29.93 | 8 | S | |||
| Nantucket | MA | 2026-05-02 06:20 | ASOS | 46 | 45 | 93 | 29.94 | 6 | S | |||
| Nantucket | MA | 2026-05-02 06:50 | ASOS | 46 | 45 | 93 | 29.94 | 7 | S | |||
| Nantucket | MA | 2026-05-02 06:45 | ASOS | 46 | 45 | 93 | 29.94 | 7 | S | |||
| Nantucket | MA | 2026-05-02 06:40 | ASOS | 46 | 45 | 93 | 29.94 | 6 | S | |||
| Nantucket | MA | 2026-05-02 06:35 | ASOS | 46 | 45 | 93 | 29.94 | 6 | S | |||
| Nantucket | MA | 2026-05-02 06:30 | ASOS | 46 | 45 | 93 | 29.94 | 6 | S | |||
| Nantucket | MA | 2026-05-02 06:25 | ASOS | 46 | 45 | 93 | 29.94 | 6 | S | |||
| Nantucket | MA | 2026-05-02 06:15 | ASOS | 45 | 45 | 100 | 29.93 | 6 | SSW | |||
| Nantucket | MA | 2026-05-02 06:55 | ASOS | 46 | 45 | 93 | 29.94 | 7 | S | |||
| Nantucket | MA | 2026-05-02 06:10 | ASOS | 45 | 45 | 100 | 29.93 | 7 | S | |||
| Nantucket | MA | 2026-05-02 06:05 | ASOS | 45 | 45 | 100 | 29.94 | 7 | S | |||
| Nantucket | MA | 2026-05-02 06:00 | ASOS | 45 | 43 | 93 | 29.93 | 7 | S | |||
| Nantucket | MA | 2026-05-02 05:55 | ASOS | 45 | 45 | 100 | 29.93 | 7 | S | |||
| Nantucket | MA | 2026-05-02 05:53 | ASOS | 45 | 43 | 93 | 29.93 | 9 | S | |||
| Nantucket | MA | 2026-05-02 05:45 | ASOS | 45 | 43 | 93 | 29.93 | 8 | S | |||
| Nantucket | MA | 2026-05-02 06:53 | ASOS | 47 | 45 | 93 | 29.94 | 7 | S | |||
| Nantucket | MA | 2026-05-02 07:00 | ASOS | 46 | 45 | 93 | 29.94 | 7 | S | |||
| Nantucket | MA | 2026-05-02 08:25 | ASOS | 50 | 45 | 82 | 29.95 | 12 | S | |||
| Nantucket | MA | 2026-05-02 07:53 | ASOS | 49 | 45 | 86 | 29.94 | 9 | SSW | |||
| Nantucket | MA | 2026-05-02 08:20 | ASOS | 50 | 45 | 82 | 29.94 | 12 | S | |||
| Nantucket | MA | 2026-05-02 08:15 | ASOS | 50 | 45 | 82 | 29.94 | 10 | S | |||
| Nantucket | MA | 2026-05-02 08:10 | ASOS | 50 | 45 | 82 | 29.94 | 10 | S | |||
| Nantucket | MA | 2026-05-02 08:05 | ASOS | 48 | 45 | 87 | 29.95 | 12 | S | |||
| Nantucket | MA | 2026-05-02 08:00 | ASOS | 50 | 45 | 82 | 29.94 | 10 | S | |||
| Nantucket | MA | 2026-05-02 07:55 | ASOS | 48 | 45 | 87 | 29.94 | 10 | S | |||
| Nantucket | MA | 2026-05-02 07:50 | ASOS | 48 | 45 | 87 | 29.95 | 9 | SSW | |||
| Nantucket | MA | 2026-05-02 07:05 | ASOS | 48 | 45 | 87 | 29.94 | 8 | S | |||
| Nantucket | MA | 2026-05-02 07:40 | ASOS | 48 | 45 | 87 | 29.94 | 9 | SSW | |||
| Nantucket | MA | 2026-05-02 07:35 | ASOS | 48 | 45 | 87 | 29.94 | 9 | S | |||
| Nantucket | MA | 2026-05-02 07:30 | ASOS | 48 | 45 | 87 | 29.94 | 8 | S | |||
| Nantucket | MA | 2026-05-02 07:25 | ASOS | 48 | 45 | 87 | 29.94 | 7 | S | |||
| Nantucket | MA | 2026-05-02 07:20 | ASOS | 48 | 45 | 87 | 29.94 | 9 | SSW | |||
| Nantucket | MA | 2026-05-02 07:15 | ASOS | 48 | 45 | 87 | 29.94 | 8 | S | |||
| Nantucket | MA | 2026-05-02 07:10 | ASOS | 48 | 45 | 87 | 29.94 | 8 | S | |||
| Nantucket | MA | 2026-05-02 23:10 | ASOS | 48 | 46 | 93 | 29.83 | 7 | S |
data collection created in 0.045868158340454 (queried in 0.008971) rendered in: 0.00073003768920898

